Latest Weather Observations for Thargomindah

IDQ60801

Issued at 11:02 pm EST Sunday 5 July 2015 (issued every 30 minutes, with the page automatically refreshed every 10 minutes)

About weather observations | Map of weather stations | Latest weather observations for QLD | Other Formats
Station Details ID: 045025 Name: THARGOMINDAH AIRPORT Lat: -27.99 Lon: 143.81 Height: 130.89 m
Data from the previous 72 hours. | See also: Recent months at Thargomindah
Date/Time
EST
Temp
°C
App
Temp
°C
Dew
Point
Rel
Hum
%
Delta-T
°C
Wind Press
QNH
hPa
Press
MSL
hPa
Rain
since 9 am
mm
Dir
 
Spd
km/h
Gust
km/h
Spd
kts
Gust
kts
05/11:00pm 7.5 4.0 -1.4 53 3.4 E 7 9 4 5 1019.9 - 0.0
05/10:30pm 8.3 4.9 -2.0 48 3.9 ESE 6 7 3 4 1020.0 - 0.0
05/10:00pm 9.0 5.4 -2.0 46 4.2 ESE 7 9 4 5 1020.0 - 0.0
05/09:30pm 10.1 6.6 -1.3 45 4.5 SE 7 7 4 4 1020.0 - 0.0
05/09:00pm 10.9 7.5 -0.9 44 4.7 SSE 7 9 4 5 1019.9 1019.8 0.0
05/08:30pm 12.0 8.2 -0.8 41 5.2 SE 9 11 5 6 1019.9 - 0.0
05/08:00pm 13.2 9.4 -0.8 38 5.7 SSE 9 11 5 6 1019.8 - 0.0
05/07:30pm 13.1 9.1 0.2 41 5.4 S 11 13 6 7 1019.6 - 0.0
05/07:00pm 13.6 9.8 -0.4 38 5.8 SSE 9 9 5 5 1019.6 - 0.0
05/06:30pm 14.8 11.4 -0.5 35 6.4 SSE 7 7 4 4 1019.5 - 0.0
05/06:00pm 16.5 13.1 -0.7 31 7.3 SSW 7 9 4 5 1019.4 1019.3 0.0
05/05:30pm 18.8 15.3 -1.1 26 8.6 W 7 9 4 5 1019.3 - 0.0
05/05:00pm 19.4 15.6 -1.1 25 8.9 NW 9 15 5 8 1019.2 - 0.0
05/04:30pm 19.7 15.4 -1.4 24 9.1 WNW 11 15 6 8 1019.0 - 0.0
05/04:00pm 19.7 15.9 -0.9 25 9.0 W 9 19 5 10 1019.0 - 0.0
05/03:30pm 19.4 15.2 -0.6 26 8.7 WSW 11 19 6 10 1019.4 - 0.0
05/03:00pm 19.5 16.1 -0.5 26 8.7 NW 7 13 4 7 1019.4 1019.3 0.0
05/02:30pm 19.4 15.7 -0.1 27 8.6 NNW 9 13 5 7 1019.4 - 0.0
05/02:00pm 18.9 15.8 0.0 28 8.3 NW 6 11 3 6 1019.6 - 0.0
05/01:30pm 18.8 15.1 -0.1 28 8.3 WNW 9 17 5 9 1020.0 - 0.0
05/01:00pm 18.4 14.8 0.5 30 7.9 N 9 17 5 9 1020.5 - 0.0
05/12:30pm 18.1 15.1 0.7 31 7.7 N 6 11 3 6 1021.0 - 0.0
05/12:00pm 17.3 14.4 1.3 34 7.1 NNW 6 11 3 6 1021.9 1021.8 0.0
05/11:30am 16.4 13.3 1.3 36 6.7 ENE 7 11 4 6 1022.0 - 0.0
05/11:00am 15.4 11.6 1.9 40 6.0 NE 11 13 6 7 1022.2 - 0.0
05/10:30am 14.0 10.2 1.6 43 5.4 ENE 11 15 6 8 1022.6 - 0.0
05/10:00am 12.9 9.1 1.6 46 4.9 ENE 11 15 6 8 1022.7 - 0.0
05/09:30am 10.6 7.5 1.2 52 3.9 NE 7 11 4 6 1022.9 - 0.0
05/09:00am 9.0 5.8 1.0 57 3.3 E 7 9 4 5 1022.7 1022.6 0.0
05/08:30am 6.5 4.5 0.0 63 2.5 CALM 0 0 0 0 1022.6 - 0.0
05/08:00am 5.0 1.6 -0.4 68 2.0 S 7 7 4 4 1022.2 - 0.0
05/07:30am 4.0 0.6 -0.6 72 1.7 E 7 9 4 5 1021.8 - 0.0
05/07:00am 3.1 -0.5 -1.8 70 1.8 ENE 7 9 4 5 1021.5 - 0.0
05/06:30am 3.8 0.3 -1.2 70 1.8 E 7 9 4 5 1021.3 - 0.0
05/06:00am 4.4 1.2 -0.8 69 1.9 ESE 6 7 3 4 1021.1 1021.0 0.0
05/05:30am 5.3 1.6 -0.1 68 2.1 SE 9 9 5 5 1021.2 - 0.0
05/05:00am 5.6 2.3 0.0 67 2.2 ESE 7 9 4 5 1021.0 - 0.0
05/04:30am 5.9 2.2 -0.2 65 2.4 ESE 9 11 5 6 1021.0 - 0.0
05/04:00am 6.4 2.7 0.1 64 2.5 ESE 9 11 5 6 1021.0 - 0.0
05/03:30am 6.2 2.1 -0.5 62 2.6 S 11 13 6 7 1021.2 - 0.0
05/03:00am 6.9 3.6 -0.1 61 2.7 SE 7 9 4 5 1020.8 1020.7 0.0
05/02:30am 7.2 3.4 -0.5 58 3.0 E 9 11 5 6 1021.0 - 0.0
05/02:00am 7.7 4.0 -0.3 57 3.1 SSE 9 11 5 6 1021.2 - 0.0
05/01:30am 7.9 3.7 -0.8 54 3.4 SSE 11 13 6 7 1021.4 - 0.0
05/01:00am 8.6 4.4 -0.7 52 3.6 SE 11 15 6 8 1020.8 - 0.0
05/12:30am 8.9 4.7 -0.9 50 3.8 E 11 13 6 7 1021.2 - 0.0
05/12:00am 9.6 5.8 -0.9 48 4.1 SE 9 15 5 8 1021.6 1021.6 0.0
 
Date/Time
EST
Temp
°C
App
Temp
°C
Dew
Point
Rel
Hum
%
Delta-T
°C
Wind Press
QNH
hPa
Press
MSL
hPa
Rain
since 9 am
mm
Dir
 
Spd
km/h
Gust
km/h
Spd
kts
Gust
kts
04/11:30pm 9.3 5.1 -1.1 48 4.1 E 11 13 6 7 1021.8 - 0.0
04/11:00pm 10.2 6.4 -0.9 46 4.4 SE 9 13 5 7 1022.3 - 0.0
04/10:30pm 10.5 6.7 -0.9 45 4.5 SE 9 11 5 6 1022.4 - 0.0
04/10:00pm 10.7 6.9 -1.0 44 4.7 SE 9 11 5 6 1022.5 - 0.0
04/09:30pm 10.7 7.0 -2.7 39 5.1 SSE 7 9 4 5 1022.4 - 0.0
04/09:00pm 11.8 7.9 -1.7 39 5.3 ESE 9 11 5 6 1022.2 1022.0 0.0
04/08:30pm 12.6 8.2 -2.1 36 5.8 SE 11 13 6 7 1022.1 - 0.0
04/08:00pm 13.3 9.4 -1.8 35 6.1 ESE 9 13 5 7 1022.0 - 0.0
04/07:30pm 13.5 9.5 -2.0 34 6.2 ESE 9 15 5 8 1021.9 - 0.0
04/07:00pm 13.6 9.6 -2.3 33 6.3 SE 9 11 5 6 1021.8 - 0.0
04/06:30pm 14.1 10.1 -2.3 32 6.6 SE 9 11 5 6 1021.5 - 0.0
04/06:00pm 14.8 11.1 -2.6 30 6.9 ESE 7 11 4 6 1021.2 1021.1 0.0
04/05:30pm 16.3 12.2 -3.2 26 7.8 ESE 9 13 5 7 1021.1 - 0.0
04/05:00pm 16.8 12.7 -2.8 26 8.0 SE 9 11 5 6 1021.1 - 0.0
04/04:30pm 17.0 12.2 -2.6 26 8.0 SSE 13 15 7 8 1020.9 - 0.0
04/04:00pm 16.9 12.8 -2.7 26 8.0 ESE 9 15 5 8 1021.0 - 0.0
04/03:30pm 16.9 13.3 -2.2 27 7.9 SSE 7 11 4 6 1020.9 - 0.0
04/03:00pm 17.0 13.1 -1.6 28 7.8 ESE 9 13 5 7 1021.0 1020.9 0.0
04/02:30pm 17.0 13.5 -1.6 28 7.8 SE 7 13 4 7 1021.0 - 0.0
04/02:00pm 16.5 13.1 -2.0 28 7.6 E 6 13 3 7 1021.2 - 0.0
04/01:30pm 16.1 12.6 -1.5 30 7.3 SE 7 13 4 7 1021.6 - 0.0
04/01:00pm 15.7 12.3 -0.9 32 7.0 NNW 7 9 4 5 1022.1 - 0.0
04/12:30pm 15.5 12.1 -0.3 34 6.7 N 7 11 4 6 1022.7 - 0.0
04/12:00pm 15.0 11.3 0.1 36 6.3 NNE 9 17 5 9 1023.2 1023.2 0.0
04/11:30am 14.2 9.4 0.5 39 5.8 NE 15 20 8 11 1023.7 - 0.0
04/11:00am 13.4 8.0 1.1 43 5.3 NE 19 24 10 13 1024.2 - 0.0
04/10:30am 13.0 8.4 1.4 45 5.0 NE 15 20 8 11 1024.5 - 0.0
04/10:00am 11.6 7.3 1.0 48 4.5 NE 13 17 7 9 1024.9 - 0.0
04/09:30am 10.2 6.6 0.8 52 3.9 E 9 13 5 7 1024.9 - 0.0
04/09:00am 7.5 3.4 -0.2 58 3.0 ENE 11 13 6 7 1024.8 1024.5 0.0
04/08:30am 5.2 1.4 -0.8 65 2.3 E 9 13 5 7 1024.6 - 0.0
04/08:00am 3.6 0.3 -1.5 69 1.9 E 6 9 3 5 1024.5 - 0.0
04/07:30am 2.7 -1.2 -1.6 73 1.5 SE 9 11 5 6 1024.3 - 0.0
04/07:00am 2.7 -1.2 -1.5 74 1.5 ESE 9 11 5 6 1024.0 - 0.0
04/06:30am 3.0 -0.9 -1.4 73 1.6 SE 9 11 5 6 1023.7 - 0.0
04/06:00am 2.9 -0.6 -1.3 74 1.5 ESE 7 9 4 5 1023.7 1023.6 0.0
04/05:30am 3.0 -0.4 -1.7 71 1.7 ESE 6 9 3 5 1023.6 - 0.0
04/05:00am 3.5 -0.1 -1.8 68 1.9 E 7 9 4 5 1023.7 - 0.0
04/04:30am 4.2 0.7 -1.6 66 2.1 ESE 7 9 4 5 1023.9 - 0.0
04/04:00am 4.6 0.7 -1.4 65 2.2 ESE 9 11 5 6 1023.9 - 0.0
04/03:30am 5.0 0.8 -1.2 64 2.3 SE 11 13 6 7 1024.0 - 0.0
04/03:00am 5.2 0.9 -1.5 62 2.5 SE 11 11 6 6 1024.1 1023.9 0.0
04/02:30am 5.7 1.9 -1.0 62 2.5 ESE 9 13 5 7 1024.3 - 0.0
04/02:00am 5.7 1.8 -1.2 61 2.6 ESE 9 11 5 6 1024.6 - 0.0
04/01:30am 6.4 2.2 -1.0 59 2.8 SE 11 13 6 7 1024.7 - 0.0
04/01:00am 6.6 2.4 -1.1 58 2.9 SE 11 13 6 7 1024.6 - 0.0
04/12:30am 7.0 3.2 -0.9 57 3.0 SE 9 11 5 6 1024.7 - 0.0
04/12:00am 7.6 3.8 -0.8 55 3.2 SE 9 13 5 7 1025.0 1024.8 0.0
 
Date/Time
EST
Temp
°C
App
Temp
°C
Dew
Point
Rel
Hum
%
Delta-T
°C
Wind Press
QNH
hPa
Press
MSL
hPa
Rain
since 9 am
mm
Dir
 
Spd
km/h
Gust
km/h
Spd
kts
Gust
kts
03/11:30pm 8.1 3.9 -0.6 54 3.4 SE 11 15 6 8 1025.0 - 0.0
03/11:00pm 8.8 5.0 -0.5 52 3.7 SE 9 11 5 6 1025.2 - 0.0
03/10:30pm 9.4 5.3 -0.2 51 3.8 SE 11 15 6 8 1025.2 - 0.0
03/10:00pm 9.5 5.8 0.1 52 3.8 ESE 9 11 5 6 1025.2 - 0.0
03/09:30pm 10.2 6.6 0.3 50 4.0 ESE 9 13 5 7 1025.1 - 0.0
03/09:00pm 10.1 6.8 0.4 51 3.9 ESE 7 9 4 5 1025.2 1025.0 0.0
03/08:30pm 10.8 6.8 0.5 49 4.3 SE 11 13 6 7 1025.0 - 0.0
03/08:00pm 11.5 7.5 0.3 46 4.6 SSE 11 15 6 8 1024.8 - 0.0
03/07:30pm 12.1 8.4 0.2 44 4.9 ESE 9 13 5 7 1024.7 - 0.0
03/07:00pm 12.5 8.9 0.3 43 5.1 ESE 9 11 5 6 1024.6 - 0.0
03/06:30pm 13.1 9.4 0.2 41 5.4 ESE 9 11 5 6 1024.7 - 0.0
03/06:00pm 13.8 10.1 0.1 39 5.7 SSE 9 11 5 6 1024.4 1024.2 0.0
03/05:30pm 14.8 10.7 -0.1 36 6.3 SE 11 15 6 8 1024.3 - 0.0
03/05:00pm 15.4 10.9 -0.4 34 6.7 SSE 13 17 7 9 1024.1 - 0.0
03/04:30pm 15.8 11.3 -0.4 33 6.9 SE 13 20 7 11 1024.1 - 0.0
03/04:00pm 15.7 11.1 -0.9 32 7.0 SE 13 19 7 10 1024.1 - 0.0
03/03:30pm 16.2 11.7 -0.5 32 7.1 ESE 13 19 7 10 1024.2 - 0.0
03/03:00pm 16.1 11.9 -0.6 32 7.0 S 11 19 6 10 1024.3 1024.2 0.0
03/02:30pm 15.8 11.6 -0.8 32 7.0 SSE 11 19 6 10 1024.5 - 0.0
03/02:00pm 15.6 10.3 -0.6 33 6.8 SSE 17 22 9 12 1024.7 - 0.0
03/01:30pm 15.3 10.5 0.3 36 6.4 SE 15 24 8 13 1025.1 - 0.0
03/01:00pm 15.3 11.3 0.3 36 6.4 E 11 17 6 9 1025.6 - 0.0
03/12:30pm 14.9 10.9 0.4 37 6.2 SE 11 22 6 12 1025.8 - 0.0
03/12:00pm 14.3 9.2 0.5 39 5.9 SE 17 24 9 13 1026.3 1026.2 0.0
03/11:30am 13.9 8.4 0.9 41 5.6 SE 19 26 10 14 1026.6 - 0.0
03/11:00am 14.2 8.8 1.2 41 5.6 ESE 19 26 10 14 1027.1 - 0.0
03/10:30am 13.4 7.5 1.7 45 5.1 ESE 22 33 12 18 1027.2 - 0.0
03/10:00am 12.8 7.5 2.1 48 4.7 ESE 19 28 10 15 1027.4 - 0.0
03/09:30am 11.7 6.1 3.5 57 3.7 ESE 22 32 12 17 1027.3 - 0.0
03/09:00am 9.5 5.5 2.6 62 2.9 ESE 13 19 7 10 1027.2 1027.1 0.0
03/08:30am 7.5 3.7 2.0 68 2.3 SE 11 17 6 9 1027.1 - 0.0
03/08:00am 5.6 2.1 1.2 73 1.8 SSE 9 13 5 7 1027.0 - 0.0
03/07:30am 4.5 0.9 0.8 77 1.4 SE 9 13 5 7 1026.9 - 0.0
03/07:00am 4.7 0.8 1.0 77 1.5 SE 11 13 6 7 1026.6 - 0.0
03/06:30am 4.2 0.6 0.9 79 1.3 SE 9 11 5 6 1026.4 - 0.0
03/06:00am 3.4 1.2 -1.3 71 1.7 CALM 0 0 0 0 1026.5 1026.4 0.0
03/05:30am 3.5 1.4 -0.7 74 1.6 CALM 0 0 0 0 1026.4 - 0.0
03/05:00am 3.6 1.4 -1.5 69 1.9 CALM 0 0 0 0 1026.4 - 0.0
03/04:30am 3.8 1.6 -1.2 70 1.8 CALM 0 0 0 0 1026.3 - 0.0
03/04:00am 4.3 2.2 -0.7 70 1.9 CALM 0 0 0 0 1026.5 - 0.0
03/03:30am 5.0 1.7 0.0 70 1.9 SSE 7 7 4 4 1026.4 - 0.0
03/03:00am 5.4 2.1 -0.2 67 2.1 S 7 9 4 5 1026.4 1026.2 0.0
03/02:30am 5.8 2.7 0.4 68 2.1 S 6 7 3 4 1026.6 - 0.0
03/02:00am 6.5 3.3 1.0 68 2.2 SSE 7 9 4 5 1026.7 - 0.0
03/01:30am 6.1 2.9 -0.2 64 2.4 S 6 7 3 4 1027.0 - 0.0
03/01:00am 7.2 3.6 0.6 63 2.6 SSE 9 11 5 6 1027.2 - 0.0
03/12:30am 7.8 3.8 0.8 61 2.8 SSE 11 15 6 8 1027.2 - 0.0
03/12:00am 8.3 4.3 0.8 59 3.0 SSE 11 13 6 7 1027.6 1027.5 0.0
 
Date/Time
EST
Temp
°C
App
Temp
°C
Dew
Point
Rel
Hum
%
Delta-T
°C
Wind Press
QNH
hPa
Press
MSL
hPa
Rain
since 9 am
mm
Dir
 
Spd
km/h
Gust
km/h
Spd
kts
Gust
kts
02/11:30pm 8.6 4.6 0.8 58 3.2 SE 11 11 6 6 1027.8 - 0.0

Other Formats:

Comma delimited format used in spreadsheet applications
http://www.bom.gov.au/fwo/IDQ60801/IDQ60801.95492.axf

JavaScript Object Notation format (JSON) in row-major order
http://www.bom.gov.au/fwo/IDQ60801/IDQ60801.95492.json